createdAt,value
2019-04-19T00:00:42.560Z,25.73
2019-04-19T00:03:20.151Z,25.50
2019-04-19T00:06:30.993Z,24.00
2019-04-19T00:09:14.300Z,23.60
2019-04-19T00:11:39.519Z,24.50
2019-04-19T00:14:04.419Z,24.80
2019-04-19T00:16:36.419Z,24.23
2019-04-19T00:19:38.498Z,25.00
2019-04-19T00:22:04.744Z,24.43
2019-04-19T00:24:14.547Z,24.47
2019-04-19T00:26:46.569Z,25.47
2019-04-19T00:29:27.579Z,24.37
2019-04-19T00:32:10.486Z,25.23
2019-04-19T00:34:25.217Z,21.80
2019-04-19T00:36:57.407Z,23.70
2019-04-19T00:40:04.728Z,22.40
2019-04-19T00:42:48.365Z,23.70
2019-04-19T00:45:29.767Z,24.83
2019-04-19T00:48:00.327Z,24.97
2019-04-19T00:50:26.893Z,24.00
2019-04-19T00:53:08.858Z,25.33
2019-04-19T00:55:35.087Z,25.77
2019-04-19T00:58:08.463Z,22.43
2019-04-19T01:00:35.555Z,24.27
2019-04-19T01:03:06.306Z,25.17
2019-04-19T01:05:48.225Z,26.53
2019-04-19T01:08:17.511Z,23.83
2019-04-19T01:11:02.458Z,24.27
2019-04-19T01:13:37.908Z,25.37
2019-04-19T01:16:06.064Z,24.33
2019-04-19T01:18:41.170Z,22.27
2019-04-19T01:21:00.593Z,26.87
2019-04-19T01:23:40.625Z,24.40
2019-04-19T01:26:10.158Z,22.47
2019-04-19T01:28:38.805Z,23.97
2019-04-19T01:31:16.394Z,23.47
2019-04-19T01:33:45.977Z,23.50
2019-04-19T01:36:25.287Z,24.03
2019-04-19T01:39:11.776Z,24.90
2019-04-19T01:41:37.332Z,24.77
2019-04-19T01:44:42.697Z,22.90
2019-04-19T01:47:27.138Z,22.53
2019-04-19T01:50:06.460Z,23.80
2019-04-19T01:52:55.910Z,25.60
2019-04-19T01:55:09.450Z,24.07
2019-04-19T01:57:33.028Z,25.60
2019-04-19T02:00:09.919Z,23.20
2019-04-19T02:02:48.191Z,25.37
2019-04-19T02:05:17.511Z,25.80
2019-04-19T02:07:49.741Z,25.40
2019-04-19T02:11:02.693Z,22.90
2019-04-19T02:13:35.466Z,24.60
2019-04-19T02:16:08.255Z,24.40
2019-04-19T02:18:35.557Z,24.47
2019-04-19T02:21:08.914Z,24.27
2019-04-19T02:23:44.472Z,23.97
2019-04-19T02:26:18.404Z,24.07
2019-04-19T02:28:47.451Z,22.10
2019-04-19T02:31:47.080Z,24.50
2019-04-19T02:34:27.556Z,22.87
2019-04-19T02:37:00.922Z,24.17
2019-04-19T02:39:30.973Z,22.83
2019-04-19T02:42:06.715Z,24.53
2019-04-19T02:44:38.456Z,24.67
2019-04-19T02:49:46.886Z,23.30
2019-04-19T02:52:36.963Z,23.60
2019-04-19T02:55:41.137Z,24.53
2019-04-19T03:04:00.148Z,21.53
2019-04-19T03:06:01.346Z,22.63
2019-04-19T03:08:18.499Z,21.80
2019-04-19T03:11:03.219Z,21.90
2019-04-19T03:13:43.242Z,22.83
2019-04-19T03:16:16.952Z,21.33
2019-04-19T03:18:45.417Z,21.93
2019-04-19T03:21:23.498Z,22.27
2019-04-19T03:23:56.560Z,22.57
2019-04-19T03:26:25.698Z,21.37
2019-04-19T03:28:51.207Z,22.20
2019-04-19T03:34:28.467Z,21.20
2019-04-19T03:36:43.783Z,20.93
2019-04-19T03:39:20.224Z,21.13
2019-04-19T03:42:11.776Z,21.00
2019-04-19T03:44:31.119Z,21.50
2019-04-19T03:47:10.172Z,19.83
2019-04-19T03:49:57.299Z,20.20
2019-04-19T03:52:20.341Z,21.70
2019-04-19T03:54:48.900Z,20.80
2019-04-19T03:57:18.426Z,20.10
2019-04-19T03:59:41.477Z,22.37
2019-04-19T04:02:20.085Z,21.20
2019-04-19T04:04:53.770Z,23.20
2019-04-19T04:07:25.765Z,21.60
2019-04-19T04:10:02.899Z,23.03
2019-04-19T04:12:49.479Z,22.20
2019-04-19T04:15:56.928Z,20.93
2019-04-19T04:18:17.450Z,20.80
2019-04-19T04:20:53.822Z,19.93
2019-04-19T04:23:29.893Z,20.33
2019-04-19T04:26:04.144Z,20.47
2019-04-19T04:28:42.633Z,20.10
2019-04-19T04:31:15.070Z,21.40
2019-04-19T04:33:51.819Z,22.37
2019-04-19T04:36:34.571Z,21.63
2019-04-19T04:38:46.590Z,21.20
2019-04-19T04:41:23.073Z,21.70
2019-04-19T04:44:07.867Z,24.47
2019-04-19T04:46:56.771Z,22.90
2019-04-19T04:50:04.216Z,22.80
2019-04-19T04:52:19.955Z,22.43
2019-04-19T04:54:43.930Z,23.60
2019-04-19T04:57:33.929Z,22.83
2019-04-19T04:59:59.243Z,24.10
2019-04-19T05:02:48.573Z,24.17
2019-04-19T05:05:19.822Z,26.80
2019-04-19T05:08:00.150Z,25.20
2019-04-19T05:10:30.731Z,25.30
2019-04-19T05:13:18.610Z,24.47
2019-04-19T05:15:38.722Z,27.87
2019-04-19T05:20:46.434Z,29.60
2019-04-19T05:23:20.987Z,27.47
2019-04-19T05:25:56.833Z,28.43
2019-04-19T05:28:27.495Z,26.17
2019-04-19T05:30:51.936Z,76.20
2019-04-19T05:33:30.788Z,47.77
2019-04-19T05:36:08.593Z,27.80
2019-04-19T05:38:56.069Z,27.83
2019-04-19T05:41:26.237Z,28.13
2019-04-19T05:47:01.427Z,28.10
2019-04-19T05:49:26.456Z,44.30
2019-04-19T05:52:10.342Z,30.27
2019-04-19T05:54:22.147Z,28.00
2019-04-19T05:56:59.474Z,28.63
2019-04-19T05:59:41.359Z,28.73
2019-04-19T06:02:12.427Z,29.63
2019-04-19T06:05:01.385Z,30.33
2019-04-19T06:07:28.182Z,36.50
2019-04-19T06:09:43.046Z,32.30
2019-04-19T06:12:21.308Z,30.07
2019-04-19T06:15:14.922Z,28.80
2019-04-19T06:17:56.341Z,30.57
2019-04-19T06:20:30.260Z,31.00
2019-04-19T06:23:07.124Z,29.90
2019-04-19T06:25:46.066Z,31.80
2019-04-19T06:28:17.554Z,28.03
2019-04-19T06:30:50.580Z,29.80
2019-04-19T06:33:21.591Z,26.20
2019-04-19T06:35:45.982Z,27.70
2019-04-19T06:38:11.613Z,26.93
2019-04-19T06:40:53.519Z,25.80
2019-04-19T06:43:30.734Z,27.60
2019-04-19T06:46:07.006Z,27.40
2019-04-19T06:48:28.708Z,28.17
2019-04-19T06:51:02.387Z,28.53
2019-04-19T06:53:40.204Z,28.73
2019-04-19T06:56:15.289Z,30.13
2019-04-19T06:58:48.760Z,28.50
2019-04-19T07:01:26.087Z,29.10
2019-04-19T07:03:46.980Z,28.27
2019-04-19T07:06:38.022Z,28.03
2019-04-19T07:09:32.977Z,30.10
2019-04-19T07:11:56.491Z,30.03
2019-04-19T07:14:12.642Z,31.40
2019-04-19T07:17:01.081Z,30.30
2019-04-19T07:19:37.391Z,28.00
2019-04-19T07:22:05.110Z,29.37
2019-04-19T07:24:47.170Z,30.77
2019-04-19T07:27:12.477Z,30.27
2019-04-19T07:29:28.071Z,26.93
2019-04-19T07:32:00.359Z,30.03
2019-04-19T07:34:50.593Z,29.20
2019-04-19T07:37:27.988Z,28.20
2019-04-19T07:42:34.720Z,28.23
2019-04-19T07:45:00.320Z,27.13
2019-04-19T07:47:55.878Z,27.60
2019-04-19T07:50:24.861Z,28.20
2019-04-19T07:52:58.246Z,27.00
2019-04-19T07:55:24.567Z,27.23
2019-04-19T07:58:39.040Z,25.93
2019-04-19T08:01:11.988Z,26.43
2019-04-19T08:03:36.193Z,23.80
2019-04-19T08:06:11.875Z,24.37
2019-04-19T08:08:47.001Z,24.37
2019-04-19T08:11:21.878Z,23.97
2019-04-19T08:13:57.765Z,25.13
2019-04-19T08:17:07.286Z,24.13
2019-04-19T08:28:47.519Z,22.23
2019-04-19T08:31:14.541Z,22.23
2019-04-19T08:33:46.827Z,23.33
2019-04-19T08:36:25.738Z,24.53
2019-04-19T08:39:09.715Z,21.70
2019-04-19T08:41:39.778Z,22.80
2019-04-19T08:44:14.361Z,23.00
2019-04-19T08:46:36.627Z,21.80
2019-04-19T08:49:38.926Z,21.40
2019-04-19T08:52:30.754Z,21.50
2019-04-19T08:55:21.791Z,20.20
2019-04-19T08:57:34.754Z,22.33
2019-04-19T09:02:57.205Z,20.90
2019-04-19T09:05:32.478Z,22.53
2019-04-19T09:08:05.709Z,20.97
2019-04-19T09:10:48.235Z,20.55
2019-04-19T09:15:45.690Z,20.80
2019-04-19T09:18:36.909Z,21.25
2019-04-19T09:20:54.938Z,22.00
2019-04-19T09:23:21.000Z,20.02
2019-04-19T09:25:55.943Z,20.23
2019-04-19T09:28:44.905Z,21.15
2019-04-19T09:31:10.671Z,20.10
2019-04-19T09:33:30.837Z,19.27
2019-04-19T09:36:04.284Z,17.07
2019-04-19T09:38:47.204Z,16.62
2019-04-19T09:41:13.609Z,16.65
2019-04-19T09:43:52.229Z,17.82
2019-04-19T09:46:12.602Z,14.73
2019-04-19T09:49:03.855Z,12.80
2019-04-19T09:51:33.578Z,17.05
2019-04-19T09:54:17.030Z,16.77
2019-04-19T09:56:43.352Z,16.55
2019-04-19T09:59:08.384Z,16.35
2019-04-19T10:01:37.293Z,16.50
2019-04-19T10:04:04.896Z,14.80
2019-04-19T10:06:36.152Z,17.27
2019-04-19T10:09:17.033Z,16.48
2019-04-19T10:11:47.114Z,15.03
2019-04-19T10:14:19.366Z,14.93
2019-04-19T10:17:07.489Z,14.30
2019-04-19T10:19:38.976Z,14.15
2019-04-19T10:22:18.568Z,14.10
2019-04-19T10:24:53.727Z,14.35
2019-04-19T10:27:29.278Z,15.70
2019-04-19T10:30:06.225Z,15.45
2019-04-19T10:32:51.904Z,15.30
2019-04-19T10:35:29.475Z,16.45
2019-04-19T10:38:01.906Z,15.43
2019-04-19T10:40:35.458Z,15.15
2019-04-19T10:43:09.277Z,16.23
2019-04-19T10:45:41.775Z,14.35
2019-04-19T10:48:13.858Z,14.23
2019-04-19T10:50:53.565Z,14.75
2019-04-19T10:53:24.108Z,14.80
2019-04-19T10:56:18.444Z,15.03
2019-04-19T10:58:50.281Z,15.75
2019-04-19T11:01:25.371Z,15.58
2019-04-19T11:03:57.053Z,14.20
2019-04-19T11:06:29.288Z,15.18
2019-04-19T11:09:00.545Z,13.22
2019-04-19T11:11:34.364Z,14.43
2019-04-19T11:14:08.352Z,15.15
2019-04-19T11:16:41.787Z,14.20
2019-04-19T11:19:20.944Z,14.95
2019-04-19T11:21:48.063Z,14.87
2019-04-19T11:24:20.066Z,13.40
2019-04-19T11:26:57.092Z,14.65
2019-04-19T11:29:28.895Z,14.65
2019-04-19T11:32:17.894Z,14.73
2019-04-19T11:34:51.350Z,15.98
2019-04-19T11:37:23.428Z,14.50
2019-04-19T11:39:55.231Z,14.98
2019-04-19T11:42:27.646Z,16.25
2019-04-19T11:44:59.429Z,17.57
2019-04-19T11:47:33.253Z,15.68
2019-04-19T11:50:07.021Z,15.30
2019-04-19T11:52:43.906Z,14.85
2019-04-19T11:55:16.211Z,15.38
2019-04-19T11:57:52.587Z,14.65
2019-04-19T12:00:42.202Z,15.00
2019-04-19T12:03:20.251Z,13.60
2019-04-19T12:05:51.866Z,14.35
2019-04-19T12:08:22.988Z,15.32
2019-04-19T12:10:54.575Z,14.63
2019-04-19T12:13:27.455Z,14.18
2019-04-19T12:15:58.991Z,14.55
2019-04-19T12:18:34.212Z,14.75
2019-04-19T12:21:07.373Z,15.50
2019-04-19T12:23:38.973Z,16.65
2019-04-19T12:26:31.443Z,16.40
2019-04-19T12:29:04.488Z,16.07
2019-04-19T12:31:37.243Z,15.58
2019-04-19T12:34:10.038Z,15.85
2019-04-19T12:36:41.792Z,14.68
2019-04-19T12:39:13.273Z,14.93
2019-04-19T12:41:47.913Z,16.02
2019-04-19T12:44:20.952Z,15.93
2019-04-19T12:46:59.153Z,16.73
2019-04-19T12:49:31.705Z,15.05
2019-04-19T12:52:08.182Z,15.60
2019-04-19T12:54:39.681Z,15.65
2019-04-19T12:57:12.484Z,15.13
2019-04-19T12:59:44.277Z,16.07
2019-04-19T13:03:07.641Z,15.15
2019-04-19T13:05:41.699Z,16.37
2019-04-19T13:08:13.003Z,16.57
2019-04-19T13:10:44.901Z,15.70
2019-04-19T13:13:18.074Z,16.10
2019-04-19T13:15:50.274Z,15.93
2019-04-19T13:18:22.422Z,17.40
2019-04-19T13:20:55.602Z,16.93
2019-04-19T13:23:28.368Z,16.47
2019-04-19T13:26:00.300Z,16.10
2019-04-19T13:28:33.276Z,16.23
2019-04-19T13:31:07.918Z,16.47
2019-04-19T13:33:42.120Z,17.53
2019-04-19T13:36:17.337Z,16.70
2019-04-19T13:39:06.833Z,15.97
2019-04-19T13:42:03.152Z,15.47
2019-04-19T13:44:35.215Z,16.83
2019-04-19T13:47:06.766Z,16.00
2019-04-19T13:49:38.723Z,15.20
2019-04-19T13:52:10.640Z,15.70
2019-04-19T13:54:43.368Z,15.50
2019-04-19T13:57:15.555Z,14.77
2019-04-19T13:59:54.491Z,15.77
2019-04-19T14:02:21.151Z,14.87
2019-04-19T14:04:53.592Z,14.70
2019-04-19T14:07:27.160Z,14.80
2019-04-19T14:09:59.524Z,14.50
2019-04-19T14:12:31.318Z,14.27
2019-04-19T14:15:03.161Z,14.50
2019-04-19T14:17:35.920Z,14.47
2019-04-19T14:20:08.647Z,14.70
2019-04-19T14:22:41.487Z,14.70
2019-04-19T14:25:14.147Z,15.87
2019-04-19T14:27:47.493Z,15.83
2019-04-19T14:30:21.478Z,15.20
2019-04-19T14:32:53.738Z,14.50
2019-04-19T14:35:25.894Z,14.20
2019-04-19T14:37:58.878Z,15.30
2019-04-19T14:40:31.332Z,12.90
2019-04-19T14:43:04.617Z,12.93
2019-04-19T14:45:38.046Z,12.20
2019-04-19T14:48:15.535Z,14.13
2019-04-19T14:50:53.066Z,13.77
2019-04-19T14:53:20.106Z,14.10
2019-04-19T14:55:52.415Z,15.60
2019-04-19T14:58:25.330Z,14.77
2019-04-19T15:01:21.199Z,15.00
2019-04-19T15:03:56.982Z,15.77
2019-04-19T15:06:29.060Z,16.00
2019-04-19T15:09:01.559Z,16.07
2019-04-19T15:11:33.931Z,13.87
2019-04-19T15:14:06.447Z,15.30
2019-04-19T15:16:39.877Z,15.80
2019-04-19T15:19:11.679Z,15.43
2019-04-19T15:21:43.964Z,14.33
2019-04-19T15:24:16.922Z,16.57
2019-04-19T15:26:49.449Z,14.90
2019-04-19T15:29:22.910Z,15.80
2019-04-19T15:31:56.795Z,17.93
2019-04-19T15:34:29.623Z,17.77
2019-04-19T15:37:01.999Z,17.33
2019-04-19T15:39:33.842Z,17.30
2019-04-19T15:42:06.579Z,17.90
2019-04-19T15:44:40.417Z,16.33
2019-04-19T15:47:12.636Z,15.93
2019-04-19T15:49:44.042Z,15.80
2019-04-19T15:52:16.199Z,16.30
2019-04-19T15:54:49.990Z,15.80
2019-04-19T15:57:21.789Z,17.20
2019-04-19T15:59:54.312Z,17.07
2019-04-19T16:02:42.178Z,16.67
2019-04-19T16:05:40.093Z,17.23
2019-04-19T16:08:24.755Z,16.90
2019-04-19T16:11:28.942Z,17.20
2019-04-19T16:14:01.931Z,15.30
2019-04-19T16:16:33.773Z,16.07
2019-04-19T16:19:05.194Z,16.57
2019-04-19T16:21:43.381Z,16.20
2019-04-19T16:24:11.200Z,15.37
2019-04-19T16:26:44.664Z,14.30
2019-04-19T16:29:25.675Z,14.90
2019-04-19T16:31:50.796Z,16.40
2019-04-19T16:34:22.964Z,17.47
2019-04-19T16:36:56.316Z,16.00
2019-04-19T16:39:31.198Z,15.60
2019-04-19T16:42:02.962Z,16.90
2019-04-19T16:44:36.261Z,15.80
2019-04-19T16:47:09.090Z,15.60
2019-04-19T16:49:42.674Z,16.77
2019-04-19T16:52:15.993Z,16.70
2019-04-19T16:54:48.257Z,17.73
2019-04-19T16:57:25.246Z,17.50
2019-04-19T16:59:57.712Z,16.83
2019-04-19T17:02:29.269Z,16.50
2019-04-19T17:05:00.942Z,15.20
2019-04-19T17:07:32.667Z,16.20
2019-04-19T17:10:04.001Z,16.13
2019-04-19T17:12:35.473Z,15.60
2019-04-19T17:15:37.272Z,16.80
2019-04-19T17:18:22.691Z,15.53
2019-04-19T17:20:58.127Z,15.20
2019-04-19T17:23:30.729Z,16.37
2019-04-19T17:26:02.373Z,16.60
2019-04-19T17:28:34.983Z,15.47
2019-04-19T17:31:06.680Z,15.50
2019-04-19T17:33:40.044Z,16.07
2019-04-19T17:36:12.798Z,15.20
2019-04-19T17:38:48.492Z,15.10
2019-04-19T17:41:18.768Z,16.63
2019-04-19T17:43:50.795Z,16.47
2019-04-19T17:46:24.313Z,16.17
2019-04-19T17:48:56.937Z,18.10
2019-04-19T17:51:31.580Z,16.67
2019-04-19T17:54:03.768Z,16.87
2019-04-19T17:56:35.393Z,18.77
2019-04-19T17:59:07.668Z,22.00
2019-04-19T18:01:40.144Z,16.80
2019-04-19T18:04:13.322Z,15.47
2019-04-19T18:06:50.962Z,15.90
2019-04-19T18:09:21.151Z,17.53
2019-04-19T18:11:51.536Z,16.60
2019-04-19T18:14:23.442Z,17.90
2019-04-19T18:16:56.446Z,17.90
2019-04-19T18:19:34.415Z,20.87
2019-04-19T18:22:12.042Z,25.60
2019-04-19T18:24:39.747Z,26.40
2019-04-19T18:27:18.058Z,21.37
2019-04-19T18:29:46.196Z,22.43
2019-04-19T18:32:47.718Z,22.03
2019-04-19T18:35:24.786Z,20.37
2019-04-19T18:37:51.809Z,19.50
2019-04-19T18:40:24.932Z,20.63
2019-04-19T18:43:11.500Z,18.80
2019-04-19T18:45:32.354Z,20.43
2019-04-19T18:48:03.989Z,22.27
2019-04-19T18:50:40.232Z,23.13
2019-04-19T18:53:19.014Z,23.90
2019-04-19T18:55:46.647Z,22.60
2019-04-19T18:58:21.287Z,22.87
2019-04-19T19:00:53.973Z,22.77
2019-04-19T19:03:31.449Z,21.30
2019-04-19T19:06:01.694Z,20.87
2019-04-19T19:08:41.118Z,20.20
2019-04-19T19:11:13.074Z,22.57
2019-04-19T19:13:44.268Z,21.23
2019-04-19T19:16:21.328Z,22.30
2019-04-19T19:18:54.263Z,22.30
2019-04-19T19:21:28.792Z,28.63
2019-04-19T19:24:26.059Z,26.77
2019-04-19T19:26:46.829Z,25.17
2019-04-19T19:29:07.867Z,28.07
2019-04-19T19:31:40.861Z,27.43
2019-04-19T19:34:18.891Z,27.90
2019-04-19T19:36:49.191Z,27.33
2019-04-19T19:39:27.451Z,25.50
2019-04-19T19:44:42.544Z,25.57
2019-04-19T19:47:47.733Z,24.83
2019-04-19T19:50:22.799Z,25.17
2019-04-19T19:52:48.653Z,24.43
2019-04-19T19:55:17.395Z,26.77
2019-04-19T19:57:46.424Z,28.13
2019-04-19T20:00:18.940Z,28.47
2019-04-19T20:02:57.441Z,26.00
2019-04-19T20:05:24.669Z,26.83
2019-04-19T20:07:51.632Z,25.80
2019-04-19T20:10:26.018Z,27.03
2019-04-19T20:13:00.856Z,32.00
2019-04-19T20:15:33.855Z,25.93
2019-04-19T20:18:04.506Z,27.03
2019-04-19T20:20:38.921Z,24.67
2019-04-19T20:23:12.258Z,25.33
2019-04-19T20:25:50.272Z,26.10
2019-04-19T20:28:23.240Z,26.00
2019-04-19T20:30:50.635Z,24.50
2019-04-19T20:33:25.747Z,23.87
2019-04-19T20:35:59.278Z,24.37
2019-04-19T20:38:35.654Z,22.47
2019-04-19T20:41:05.748Z,23.73
2019-04-19T20:43:50.022Z,23.50
2019-04-19T20:46:15.966Z,22.77
2019-04-19T20:48:45.051Z,23.47
2019-04-19T20:51:33.855Z,22.83
2019-04-19T20:54:07.072Z,22.50
2019-04-19T20:56:52.427Z,23.53
2019-04-19T20:59:03.581Z,22.63
2019-04-19T21:01:38.955Z,23.30
2019-04-19T21:04:15.702Z,22.33
2019-04-19T21:06:44.954Z,22.80
2019-04-19T21:09:24.026Z,22.77
2019-04-19T21:11:52.665Z,22.97
2019-04-19T21:14:32.192Z,22.83
2019-04-19T21:17:03.449Z,23.03
2019-04-19T21:19:38.233Z,23.47
2019-04-19T21:22:04.169Z,24.63
2019-04-19T21:24:51.895Z,22.80
2019-04-19T21:27:13.221Z,22.03
2019-04-19T21:29:43.913Z,21.70
2019-04-19T21:32:20.819Z,21.97
2019-04-19T21:34:50.108Z,21.77
2019-04-19T21:37:29.157Z,21.33
2019-04-19T21:39:56.669Z,22.83
2019-04-19T21:42:34.647Z,23.37
2019-04-19T21:45:05.134Z,24.07
2019-04-19T21:47:42.907Z,21.70
2019-04-19T21:50:13.038Z,22.67
2019-04-19T21:52:53.204Z,22.10
2019-04-19T21:55:28.866Z,23.17
2019-04-19T21:57:55.769Z,21.90
2019-04-19T22:00:54.405Z,21.73
2019-04-19T22:03:24.505Z,24.00
2019-04-19T22:05:55.346Z,22.50
2019-04-19T22:08:31.154Z,22.30
2019-04-19T22:11:00.524Z,21.77
2019-04-19T22:13:40.813Z,22.93
2019-04-19T22:16:06.216Z,21.07
2019-04-19T22:18:44.210Z,21.77
2019-04-19T22:21:10.847Z,21.07
2019-04-19T22:23:46.424Z,21.73
2019-04-19T22:26:24.837Z,21.20
2019-04-19T22:28:49.268Z,22.60
2019-04-19T22:31:26.774Z,22.67
2019-04-19T22:33:54.569Z,22.50
2019-04-19T22:36:30.074Z,21.50
2019-04-19T22:39:02.135Z,22.70
2019-04-19T22:41:34.876Z,22.23
2019-04-19T22:44:06.970Z,22.87
2019-04-19T22:46:45.362Z,22.70
2019-04-19T22:49:14.603Z,23.00
2019-04-19T22:51:45.150Z,21.83
2019-04-19T22:54:16.902Z,22.60
2019-04-19T22:56:57.329Z,22.50
2019-04-19T22:59:21.984Z,22.00
2019-04-19T23:02:10.287Z,23.43
2019-04-19T23:04:43.731Z,22.97
2019-04-19T23:07:16.272Z,21.93
2019-04-19T23:09:48.624Z,21.80
2019-04-19T23:12:20.689Z,22.50
2019-04-19T23:14:52.904Z,22.37
2019-04-19T23:17:31.866Z,23.43
2019-04-19T23:19:59.198Z,22.07
2019-04-19T23:22:39.036Z,22.97
2019-04-19T23:25:09.988Z,22.07
2019-04-19T23:27:49.652Z,23.27
2019-04-19T23:30:25.626Z,21.37
2019-04-19T23:32:54.591Z,21.60
2019-04-19T23:35:30.317Z,21.40
2019-04-19T23:37:59.015Z,22.90
2019-04-19T23:40:33.728Z,22.33
2019-04-19T23:43:06.030Z,20.80
2019-04-19T23:45:43.821Z,21.63
2019-04-19T23:48:12.893Z,23.00
2019-04-19T23:50:46.136Z,23.30
2019-04-19T23:53:18.606Z,24.03
2019-04-19T23:55:50.678Z,21.87
2019-04-19T23:58:31.475Z,22.80
